Time;durP1;ratioP1;P1;durP2;ratioP2;P2;SDS_P1;SDS_P2;PMS_P1;PMS_P2;Temp;Humidity;BMP_temperature;BMP_pressure;BME280_temperature;BME280_humidity;BME280_pressure;Samples;Min_cycle;Max_cycle;Signal;HPM_P1;HPM_P2
2023/05/11 16:56:21;;;;;;;1.55;0.20;;;;;;;12.59;100.00;100605.72;5119268;27;21263;-80
2023/05/11 16:58:52;;;;;;;0.95;0.45;;;;;;;12.77;100.00;100609.16;5087454;28;20035;-80
2023/05/11 17:01:23;;;;;;;0.80;0.40;;;;;;;13.01;100.00;100617.47;5089943;28;20070;-81
2023/05/11 17:03:53;;;;;;;0.30;0.25;;;;;;;13.14;100.00;100606.41;5079305;28;20032;-80
2023/05/11 17:06:23;;;;;;;0.90;0.25;;;;;;;13.18;100.00;100617.56;5076373;28;20107;-77
2023/05/11 17:08:54;;;;;;;1.50;0.45;;;;;;;13.13;100.00;100613.56;5094771;28;20082;-75
2023/05/11 17:11:24;;;;;;;1.15;0.43;;;;;;;13.20;100.00;100615.56;5096117;28;20024;-78
2023/05/11 17:13:54;;;;;;;2.17;0.35;;;;;;;13.22;100.00;100627.69;5078025;28;20119;-79
2023/05/11 17:16:23;;;;;;;2.30;0.40;;;;;;;13.21;100.00;100636.66;5079856;28;20032;-79
2023/05/11 17:18:51;;;;;;;2.05;0.68;;;;;;;13.15;100.00;100632.78;5087748;28;20020;-81
2023/05/11 17:21:20;;;;;;;1.83;0.55;;;;;;;12.96;100.00;100647.13;5086057;28;20027;-77
2023/05/11 17:23:48;;;;;;;6.68;0.60;;;;;;;12.68;100.00;100665.78;5083452;28;20059;-76
2023/05/11 17:26:15;;;;;;;2.30;0.40;;;;;;;12.38;100.00;100676.63;5083682;28;20040;-79
2023/05/11 17:28:43;;;;;;;1.55;0.47;;;;;;;11.95;100.00;100670.16;5078839;28;20032;-79
2023/05/11 17:31:15;;;;;;;2.17;0.30;;;;;;;11.82;100.00;100675.81;5071105;28;20041;-76
2023/05/11 17:33:43;;;;;;;5.28;0.40;;;;;;;11.71;100.00;100669.72;5070280;28;20029;-75
2023/05/11 17:36:11;;;;;;;1.75;0.40;;;;;;;11.65;100.00;100672.97;5077063;28;20109;-77
2023/05/11 17:38:39;;;;;;;1.45;0.40;;;;;;;11.71;100.00;100674.19;5050104;28;20052;-81
2023/05/11 17:41:07;;;;;;;1.50;0.40;;;;;;;11.65;100.00;100684.41;5051030;28;20642;-81
2023/05/11 17:43:36;;;;;;;1.75;0.40;;;;;;;11.74;100.00;100692.41;5030231;28;20037;-80
2023/05/11 17:46:04;;;;;;;5.82;0.70;;;;;;;11.68;100.00;100693.84;5003520;28;20913;-81
2023/05/11 17:48:34;;;;;;;1.65;0.57;;;;;;;11.68;100.00;100704.44;5033264;28;20053;-81
2023/05/11 17:51:01;;;;;;;2.30;1.15;;;;;;;11.64;100.00;100708.38;5037903;28;20029;-81
2023/05/11 17:53:29;;;;;;;1.75;0.77;;;;;;;11.67;100.00;100718.66;5039167;28;20382;-81
2023/05/11 17:56:00;;;;;;;3.70;0.80;;;;;;;11.80;100.00;100726.28;5052090;28;20041;-81
2023/05/11 17:58:30;;;;;;;1.77;0.95;;;;;;;11.90;100.00;100727.06;5037933;28;20101;-81
2023/05/11 18:01:07;;;;;;;2.72;1.50;;;;;;;12.01;100.00;100736.66;5057459;28;20086;-81
2023/05/11 18:03:36;;;;;;;5.05;2.17;;;;;;;12.09;100.00;100743.88;5052171;28;20036;-81
2023/05/11 18:06:04;;;;;;;2.08;1.70;;;;;;;12.17;100.00;100745.78;5051792;28;20021;-81
2023/05/11 18:08:32;;;;;;;3.22;2.00;;;;;;;12.25;100.00;100755.66;4962073;28;20033;-80
2023/05/11 18:11:00;;;;;;;1.77;1.33;;;;;;;12.27;100.00;100751.06;5041827;28;20541;-81
2023/05/11 18:13:29;;;;;;;5.22;2.13;;;;;;;12.26;100.00;100755.50;5029375;28;20033;-80
2023/05/11 18:15:59;;;;;;;3.40;1.05;;;;;;;12.30;100.00;100764.00;5047547;28;20029;-80
2023/05/11 18:18:29;;;;;;;5.80;0.82;;;;;;;12.36;100.00;100767.91;5023369;28;20039;-80
2023/05/11 18:21:06;;;;;;;3.03;0.90;;;;;;;12.48;100.00;100776.47;5044923;28;20041;-80
2023/05/11 18:23:37;;;;;;;2.60;0.70;;;;;;;12.48;100.00;100779.13;5043993;28;20140;-80
2023/05/11 18:26:07;;;;;;;1.98;0.70;;;;;;;12.47;100.00;100777.47;5037188;28;20051;-80
2023/05/11 18:28:37;;;;;;;2.10;0.52;;;;;;;12.47;100.00;100788.88;5040758;28;20036;-80
2023/05/11 18:31:06;;;;;;;1.77;0.40;;;;;;;12.46;100.00;100786.38;5043656;28;20394;-80
2023/05/11 18:33:36;;;;;;;0.77;0.35;;;;;;;12.38;100.00;100789.78;5040785;28;20025;-80
2023/05/11 18:36:05;;;;;;;2.13;0.30;;;;;;;12.35;100.00;100790.06;5040432;28;20111;-80
2023/05/11 18:38:33;;;;;;;2.85;0.50;;;;;;;12.40;100.00;100793.13;5045368;28;20111;-80
2023/05/11 18:41:06;;;;;;;0.77;0.40;;;;;;;12.42;100.00;100792.97;5043194;28;20036;-80
2023/05/11 18:43:34;;;;;;;0.70;0.40;;;;;;;12.33;100.00;100800.81;5048937;28;20114;-80
2023/05/11 18:46:07;;;;;;;0.40;0.30;;;;;;;12.33;100.00;100797.31;5026677;28;20034;-80
2023/05/11 18:48:35;;;;;;;0.60;0.40;;;;;;;12.27;100.00;100809.34;5045101;28;20462;-80
2023/05/11 18:51:06;;;;;;;1.10;0.35;;;;;;;12.13;100.00;100813.34;5044426;28;20057;-80
2023/05/11 18:53:36;;;;;;;0.55;0.38;;;;;;;12.10;100.00;100809.16;5043374;28;20052;-80
2023/05/11 18:56:06;;;;;;;0.93;0.38;;;;;;;12.07;100.00;100813.88;5047609;28;20067;-80
2023/05/11 18:58:36;;;;;;;1.00;0.32;;;;;;;12.03;100.00;100816.81;5049422;28;20112;-79
2023/05/11 19:01:06;;;;;;;0.40;0.40;;;;;;;12.07;100.00;100819.19;5039258;28;20033;-80
2023/05/11 19:03:34;;;;;;;0.75;0.40;;;;;;;12.01;100.00;100825.88;5046205;28;20033;-80
2023/05/11 19:06:02;;;;;;;0.55;0.47;;;;;;;12.02;100.00;100831.03;5044230;28;20095;-80
2023/05/11 19:08:30;;;;;;;1.08;0.50;;;;;;;12.02;100.00;100831.03;5044923;28;20037;-80
2023/05/11 19:11:06;;;;;;;1.75;0.50;;;;;;;12.02;100.00;100836.31;5035193;28;20037;-80
2023/05/11 19:13:34;;;;;;;2.55;1.02;;;;;;;12.04;100.00;100844.13;5041281;28;20055;-80
2023/05/11 19:16:03;;;;;;;1.45;0.90;;;;;;;12.12;100.00;100852.22;5035804;28;20083;-80
2023/05/11 19:18:34;;;;;;;2.22;1.20;;;;;;;12.07;100.00;100857.09;5035337;28;20040;-80
2023/05/11 19:21:04;;;;;;;3.40;1.70;;;;;;;11.84;100.00;100859.25;5023331;28;20102;-80
2023/05/11 19:23:33;;;;;;;3.60;1.65;;;;;;;11.75;100.00;100858.28;5042031;28;20029;-80
2023/05/11 19:26:03;;;;;;;3.03;1.80;;;;;;;11.73;100.00;100865.53;5039564;28;20025;-80
2023/05/11 19:28:32;;;;;;;3.33;2.20;;;;;;;11.72;100.00;100871.81;5041895;28;20120;-80
2023/05/11 19:31:05;;;;;;;5.68;2.92;;;;;;;11.62;100.00;100885.91;5042566;28;20033;-80
2023/05/11 19:33:36;;;;;;;3.35;2.05;;;;;;;11.58;100.00;100884.50;5020979;28;20440;-80
2023/05/11 19:36:06;;;;;;;3.33;1.23;;;;;;;11.49;100.00;100891.47;5045570;28;20507;-80
2023/05/11 19:38:36;;;;;;;1.23;0.73;;;;;;;11.58;100.00;100904.88;5039975;28;20029;-80
2023/05/11 19:41:06;;;;;;;0.93;0.60;;;;;;;11.57;100.00;100909.31;5041688;28;20024;-80
2023/05/11 19:43:36;;;;;;;1.15;0.60;;;;;;;11.52;100.00;100911.53;5041800;28;20500;-80
2023/05/11 19:46:03;;;;;;;1.67;0.77;;;;;;;11.51;100.00;100923.09;5047199;28;20025;-80
2023/05/11 19:48:34;;;;;;;2.83;0.80;;;;;;;11.52;100.00;100924.78;5045457;28;20028;-79
2023/05/11 19:51:03;;;;;;;2.35;1.17;;;;;;;11.56;100.00;100930.63;5043658;28;20083;-79
2023/05/11 19:53:31;;;;;;;6.18;2.03;;;;;;;11.51;100.00;100937.19;5041675;28;20063;-80
2023/05/11 19:55:59;;;;;;;1.77;0.63;;;;;;;11.52;100.00;100949.44;5039017;28;20524;-79
2023/05/11 19:58:27;;;;;;;1.33;0.60;;;;;;;11.47;100.00;100948.16;5040576;28;20067;-79
2023/05/11 20:00:55;;;;;;;1.88;0.82;;;;;;;11.55;100.00;100961.56;5022180;28;20048;-79
2023/05/11 20:03:24;;;;;;;3.80;1.80;;;;;;;11.53;100.00;100967.00;5040459;28;20033;-79
2023/05/11 20:05:51;;;;;;;2.63;1.55;;;;;;;11.48;100.00;100971.03;5036786;28;20044;-80
2023/05/11 20:08:20;;;;;;;3.10;1.38;;;;;;;11.36;100.00;100972.94;5039968;28;20059;-79
2023/05/11 20:10:47;;;;;;;3.22;0.95;;;;;;;11.33;100.00;100981.16;5036711;28;20721;-79
2023/05/11 20:13:16;;;;;;;6.30;0.80;;;;;;;11.26;100.00;100989.66;5041162;28;20675;-79
2023/05/11 20:15:44;;;;;;;2.15;0.90;;;;;;;11.27;100.00;100987.84;5039904;28;20477;-79
2023/05/11 20:18:12;;;;;;;1.98;0.77;;;;;;;11.18;100.00;100993.94;5043130;28;20033;-80
2023/05/11 20:20:39;;;;;;;1.40;0.85;;;;;;;11.03;100.00;100997.81;5043549;28;20119;-79
2023/05/11 20:23:08;;;;;;;2.10;1.10;;;;;;;10.91;100.00;101006.78;5042099;28;20111;-80
2023/05/11 20:25:38;;;;;;;2.35;1.10;;;;;;;10.94;100.00;101011.81;5022335;28;20025;-79
2023/05/11 20:28:07;;;;;;;2.38;0.70;;;;;;;10.91;100.00;101015.56;5045579;28;20069;-79
2023/05/11 20:30:36;;;;;;;1.40;1.13;;;;;;;10.90;100.00;101018.34;5043378;28;20041;-79
2023/05/11 20:33:04;;;;;;;7.57;1.17;;;;;;;10.92;100.00;101027.00;5039208;28;20116;-80
2023/05/11 20:35:32;;;;;;;2.17;0.88;;;;;;;10.86;100.00;101022.22;5044287;28;20021;-80
2023/05/11 20:38:00;;;;;;;2.28;0.90;;;;;;;10.86;100.00;101041.56;5045328;28;20048;-80
2023/05/11 20:40:29;;;;;;;6.38;1.20;;;;;;;10.92;100.00;101043.69;5041276;28;20057;-79
2023/05/11 20:42:56;;;;;;;2.45;0.93;;;;;;;10.82;100.00;101050.75;5043118;28;20044;-79
2023/05/11 20:45:24;;;;;;;1.15;0.70;;;;;;;10.85;100.00;101061.06;5039976;28;20040;-79
2023/05/11 20:47:52;;;;;;;1.30;0.77;;;;;;;10.75;100.00;101071.56;5038757;28;20044;-79
2023/05/11 20:50:20;;;;;;;5.00;0.93;;;;;;;10.87;100.00;101077.63;5038751;28;20037;-80
2023/05/11 20:52:48;;;;;;;7.72;1.45;;;;;;;10.86;100.00;101077.78;5036931;28;20028;-80
2023/05/11 20:55:16;;;;;;;4.78;1.17;;;;;;;10.85;100.00;101084.00;5035566;28;20568;-80
2023/05/11 20:57:45;;;;;;;2.25;1.00;;;;;;;10.75;100.00;101087.44;5022368;28;20044;-80
2023/05/11 21:00:14;;;;;;;3.60;1.08;;;;;;;10.76;100.00;101090.94;5035482;28;20037;-79
2023/05/11 21:02:45;;;;;;;2.67;0.80;;;;;;;10.67;100.00;101097.84;5032527;28;20035;-80
2023/05/11 21:05:13;;;;;;;3.28;0.90;;;;;;;10.57;100.00;101103.06;5043959;28;20039;-80
2023/05/11 21:07:40;;;;;;;4.50;1.08;;;;;;;10.57;100.00;101115.41;5037736;28;20094;-80
2023/05/11 21:10:10;;;;;;;3.20;1.08;;;;;;;10.63;100.00;101106.97;5042844;28;20039;-80
2023/05/11 21:12:38;;;;;;;3.20;0.77;;;;;;;10.53;100.00;101110.38;5024190;28;20206;-80
2023/05/11 21:15:06;;;;;;;3.88;0.73;;;;;;;10.51;100.00;101122.88;5051768;28;20041;-80
2023/05/11 21:17:34;;;;;;;3.75;1.20;;;;;;;10.43;100.00;101125.31;5023995;28;20029;-80
2023/05/11 21:20:05;;;;;;;1.95;1.08;;;;;;;10.33;100.00;101129.66;5040389;28;20214;-81
2023/05/11 21:22:37;;;;;;;6.57;1.35;;;;;;;10.24;100.00;101128.63;5036587;28;20052;-76
2023/05/11 21:25:05;;;;;;;2.00;1.10;;;;;;;10.27;100.00;101129.19;5032429;28;20107;-76
2023/05/11 21:27:33;;;;;;;4.20;1.20;;;;;;;10.27;100.00;101139.75;5039927;28;20033;-79
2023/05/11 21:30:01;;;;;;;1.95;0.90;;;;;;;10.18;100.00;101140.50;5033925;28;20028;-79
2023/05/11 21:32:29;;;;;;;2.30;1.17;;;;;;;10.12;100.00;101141.84;5036053;28;20044;-79
2023/05/11 21:34:57;;;;;;;2.15;1.30;;;;;;;10.03;100.00;101142.59;5037330;28;20078;-79
2023/05/11 21:37:24;;;;;;;2.42;1.55;;;;;;;10.02;100.00;101148.81;5019915;28;20029;-79
2023/05/11 21:39:52;;;;;;;5.40;1.80;;;;;;;10.02;100.00;101151.47;5041519;28;20692;-79
2023/05/11 21:42:20;;;;;;;3.90;1.20;;;;;;;9.97;100.00;101154.47;5043896;28;20562;-79
2023/05/11 21:44:48;;;;;;;4.82;1.80;;;;;;;9.99;100.00;101157.84;5028576;28;20518;-79
2023/05/11 21:47:17;;;;;;;3.75;1.40;;;;;;;9.96;100.00;101159.88;5043078;28;20028;-79
2023/05/11 21:49:44;;;;;;;3.33;1.80;;;;;;;10.01;100.00;101170.94;5034709;28;20831;-79
2023/05/11 21:52:12;;;;;;;3.80;2.05;;;;;;;9.93;100.00;101167.13;5040768;28;20035;-79
2023/05/11 21:54:39;;;;;;;4.32;1.15;;;;;;;9.97;100.00;101175.59;5046665;28;20053;-79
2023/05/11 21:57:08;;;;;;;3.70;1.10;;;;;;;9.92;100.00;101175.16;5042564;28;20069;-79
2023/05/11 21:59:35;;;;;;;3.83;0.93;;;;;;;9.90;100.00;101174.44;5032844;28;20033;-80
2023/05/11 22:02:04;;;;;;;2.60;0.80;;;;;;;9.90;100.00;101185.00;5042775;28;20035;-76
2023/05/11 22:04:31;;;;;;;2.50;1.02;;;;;;;9.90;100.00;101187.63;5014053;28;20036;-76
2023/05/11 22:07:00;;;;;;;3.50;1.17;;;;;;;9.89;100.00;101185.97;5058120;28;20492;-79
2023/05/11 22:09:28;;;;;;;4.43;1.10;;;;;;;9.93;100.00;101196.16;5044974;28;20033;-79
2023/05/11 22:11:57;;;;;;;6.55;1.45;;;;;;;9.85;100.00;101193.28;5040757;28;20029;-79
2023/05/11 22:14:24;;;;;;;3.38;1.13;;;;;;;9.87;100.00;101185.25;5042178;28;20108;-79
2023/05/11 22:16:53;;;;;;;4.93;1.00;;;;;;;9.83;100.00;101189.91;5041931;28;20028;-79
2023/05/11 22:19:20;;;;;;;5.00;1.10;;;;;;;9.80;100.00;101191.00;5034457;28;20684;-79
2023/05/11 22:21:49;;;;;;;4.85;1.40;;;;;;;9.74;100.00;101191.50;5042630;28;20132;-80
2023/05/11 22:24:16;;;;;;;2.15;0.85;;;;;;;9.80;100.00;101195.44;5039008;28;20393;-80
2023/05/11 22:26:45;;;;;;;3.40;1.45;;;;;;;9.72;100.00;101196.03;5042202;28;20029;-77
2023/05/11 22:29:12;;;;;;;2.80;1.35;;;;;;;9.74;100.00;101191.50;5030349;28;20037;-77
2023/05/11 22:31:41;;;;;;;6.95;1.20;;;;;;;9.71;100.00;101196.16;5036176;28;20034;-80
2023/05/11 22:34:07;;;;;;;8.82;1.90;;;;;;;9.72;100.00;101205.75;5037211;28;21104;-79
2023/05/11 22:36:36;;;;;;;2.50;1.25;;;;;;;9.69;100.00;101209.47;5042143;28;20060;-79
2023/05/11 22:39:04;;;;;;;6.72;1.08;;;;;;;9.70;100.00;101211.16;5044218;28;20412;-79
2023/05/11 22:41:32;;;;;;;7.70;1.50;;;;;;;9.63;100.00;101215.25;5042998;28;20025;-79
2023/05/11 22:44:00;;;;;;;3.90;1.42;;;;;;;9.64;100.00;101223.03;5021097;28;20406;-79
2023/05/11 22:46:29;;;;;;;3.53;1.27;;;;;;;9.62;100.00;101224.94;5025491;28;20413;-79
2023/05/11 22:48:56;;;;;;;4.05;1.10;;;;;;;9.67;100.00;101236.00;5040864;28;20494;-79
2023/05/11 22:51:25;;;;;;;7.97;1.50;;;;;;;9.75;100.00;101238.03;5057023;28;20524;-79
2023/05/11 22:53:54;;;;;;;8.32;1.45;;;;;;;9.64;100.00;101241.50;5056476;28;20037;-79
2023/05/11 22:56:24;;;;;;;3.83;1.58;;;;;;;9.58;100.00;101233.22;5039546;28;20095;-80
2023/05/11 22:58:55;;;;;;;9.25;1.52;;;;;;;9.53;100.00;101244.13;5044635;28;20473;-79
2023/05/11 23:01:26;;;;;;;9.50;1.35;;;;;;;9.53;100.00;101246.78;5039903;28;20458;-79
2023/05/11 23:03:57;;;;;;;5.00;1.45;;;;;;;9.64;100.00;101248.59;5028424;28;20029;-79
2023/05/11 23:06:27;;;;;;;7.60;1.42;;;;;;;9.52;100.00;101251.19;5031403;28;20070;-79
2023/05/11 23:08:57;;;;;;;2.58;1.30;;;;;;;9.48;100.00;101247.13;5047382;28;20067;-79
2023/05/11 23:11:27;;;;;;;3.42;1.70;;;;;;;9.43;100.00;101255.41;5031251;28;20049;-79
2023/05/11 23:13:57;;;;;;;4.55;2.08;;;;;;;9.33;100.00;101264.13;5048227;28;20029;-79
2023/05/11 23:16:27;;;;;;;8.93;1.83;;;;;;;9.23;100.00;101256.91;5035740;28;20489;-80
2023/05/11 23:19:00;;;;;;;6.65;1.95;;;;;;;9.14;100.00;101265.50;5049675;28;20025;-79
2023/05/11 23:21:30;;;;;;;8.45;2.55;;;;;;;9.16;100.00;101266.22;5041600;28;20041;-79
2023/05/11 23:24:00;;;;;;;5.28;1.88;;;;;;;9.14;100.00;101274.25;5047355;28;20033;-79
2023/05/11 23:26:29;;;;;;;10.18;1.98;;;;;;;9.17;100.00;101276.66;5048250;28;20021;-79
2023/05/11 23:29:00;;;;;;;8.85;2.60;;;;;;;9.11;100.00;101284.22;5025171;28;20057;-80
2023/05/11 23:31:31;;;;;;;7.53;2.22;;;;;;;9.07;100.00;101283.59;5040257;28;20029;-80
2023/05/11 23:34:01;;;;;;;5.05;1.63;;;;;;;9.02;100.00;101286.56;5039648;28;20061;-80
2023/05/11 23:36:31;;;;;;;4.65;2.03;;;;;;;8.96;100.00;101288.81;5030291;28;20446;-80
2023/05/11 23:39:01;;;;;;;2.90;2.10;;;;;;;8.91;100.00;101283.88;5030707;28;20041;-79
2023/05/11 23:41:31;;;;;;;6.32;2.15;;;;;;;8.88;100.00;101294.63;5059145;28;20047;-79
2023/05/11 23:44:01;;;;;;;3.63;2.22;;;;;;;8.83;100.00;101297.63;5046178;28;20086;-80
2023/05/11 23:46:31;;;;;;;5.25;2.13;;;;;;;8.83;100.00;101299.41;5028064;28;20091;-79
2023/05/11 23:49:01;;;;;;;3.22;1.80;;;;;;;8.88;100.00;101295.50;5037746;28;20106;-79
2023/05/11 23:51:31;;;;;;;7.88;2.20;;;;;;;8.90;100.00;101300.66;5027754;28;20034;-79
2023/05/11 23:54:00;;;;;;;7.95;2.78;;;;;;;8.92;100.00;101298.72;5038881;28;20033;-79
2023/05/11 23:56:30;;;;;;;5.15;1.92;;;;;;;8.97;100.00;101301.03;5039352;28;20037;-79
2023/05/11 23:59:00;;;;;;;7.75;2.10;;;;;;;9.04;100.00;101302.28;5006697;28;20048;-80
